createdAt,value
2018-10-21T00:01:11.223Z,52.30
2018-10-21T00:03:45.746Z,51.33
2018-10-21T00:06:20.330Z,52.17
2018-10-21T00:08:54.920Z,52.90
2018-10-21T00:11:29.475Z,55.23
2018-10-21T00:14:04.021Z,54.27
2018-10-21T00:16:38.593Z,52.17
2018-10-21T00:19:13.152Z,54.20
2018-10-21T00:21:47.780Z,53.90
2018-10-21T00:24:22.382Z,54.90
2018-10-21T00:26:57.232Z,53.33
2018-10-21T00:29:31.871Z,52.83
2018-10-21T00:32:06.474Z,51.63
2018-10-21T00:34:41.045Z,52.27
2018-10-21T00:37:15.554Z,52.83
2018-10-21T00:39:50.240Z,51.90
2018-10-21T00:42:24.739Z,51.40
2018-10-21T00:44:59.417Z,51.40
2018-10-21T00:47:33.933Z,49.83
2018-10-21T00:50:09.733Z,51.53
2018-10-21T00:52:44.286Z,49.20
2018-10-21T00:55:18.841Z,50.83
2018-10-21T00:57:53.473Z,49.10
2018-10-21T01:00:28.085Z,47.70
2018-10-21T01:03:02.762Z,47.73
2018-10-21T01:05:37.460Z,47.77
2018-10-21T01:08:12.059Z,44.87
2018-10-21T01:10:46.717Z,46.63
2018-10-21T01:13:21.354Z,47.67
2018-10-21T01:15:55.918Z,46.67
2018-10-21T01:18:30.490Z,46.03
2018-10-21T01:21:05.259Z,47.33
2018-10-21T01:23:39.909Z,46.60
2018-10-21T01:26:14.508Z,48.60
2018-10-21T01:28:49.181Z,51.20
2018-10-21T01:31:23.901Z,49.07
2018-10-21T01:33:58.466Z,50.20
2018-10-21T01:36:33.284Z,50.90
2018-10-21T01:39:10.245Z,51.33
2018-10-21T01:41:44.766Z,52.97
2018-10-21T01:44:19.401Z,50.73
2018-10-21T01:46:54.067Z,48.10
2018-10-21T01:49:35.233Z,46.10
2018-10-21T01:52:09.791Z,42.17
2018-10-21T01:54:44.391Z,42.87
2018-10-21T01:57:19.077Z,47.03
2018-10-21T01:59:53.599Z,46.30
2018-10-21T02:02:28.245Z,46.97
2018-10-21T02:05:02.877Z,43.77
2018-10-21T02:07:37.493Z,43.47
2018-10-21T02:10:12.133Z,41.07
2018-10-21T02:12:46.782Z,41.67
2018-10-21T02:15:21.410Z,44.03
2018-10-21T02:17:56.085Z,47.07
2018-10-21T02:20:30.723Z,44.33
2018-10-21T02:23:05.369Z,46.03
2018-10-21T02:25:40.035Z,47.63
2018-10-21T02:28:14.601Z,48.17
2018-10-21T02:30:49.229Z,47.47
2018-10-21T02:33:24.192Z,46.07
2018-10-21T02:35:58.738Z,47.37
2018-10-21T02:38:33.438Z,47.43
2018-10-21T02:41:20.107Z,46.47
2018-10-21T02:43:54.745Z,47.37
2018-10-21T02:46:29.729Z,47.57
2018-10-21T02:49:05.135Z,46.93
2018-10-21T02:51:39.792Z,46.40
2018-10-21T02:54:14.437Z,44.07
2018-10-21T02:56:49.114Z,44.23
2018-10-21T02:59:24.185Z,40.93
2018-10-21T03:01:58.774Z,41.43
2018-10-21T03:04:33.565Z,40.80
2018-10-21T03:07:08.204Z,40.47
2018-10-21T03:09:42.855Z,40.97
2018-10-21T03:12:17.513Z,40.40
2018-10-21T03:14:52.290Z,39.30
2018-10-21T03:17:26.963Z,37.73
2018-10-21T03:20:01.686Z,42.23
2018-10-21T03:22:36.220Z,42.43
2018-10-21T03:25:10.837Z,42.80
2018-10-21T03:27:45.538Z,41.10
2018-10-21T03:30:20.138Z,42.47
2018-10-21T03:32:54.773Z,41.43
2018-10-21T03:35:29.467Z,42.13
2018-10-21T03:38:04.131Z,39.60
2018-10-21T03:40:38.744Z,39.03
2018-10-21T03:43:13.270Z,37.70
2018-10-21T03:45:47.818Z,24.87
2018-10-21T03:48:22.387Z,20.43
2018-10-21T03:50:57.133Z,18.47
2018-10-21T03:53:31.810Z,17.73
2018-10-21T03:56:06.550Z,17.13
2018-10-21T03:58:41.238Z,13.87
2018-10-21T04:01:15.906Z,14.43
2018-10-21T04:03:50.653Z,14.67
2018-10-21T04:06:25.344Z,12.20
2018-10-21T04:08:59.927Z,12.83
2018-10-21T04:11:34.646Z,10.43
2018-10-21T04:14:09.266Z,11.80
2018-10-21T04:16:43.910Z,11.70
2018-10-21T04:19:18.530Z,11.43
2018-10-21T04:21:53.183Z,12.97
2018-10-21T04:24:27.738Z,12.27
2018-10-21T04:27:02.280Z,11.33
2018-10-21T04:29:36.925Z,10.30
2018-10-21T04:32:11.514Z,10.40
2018-10-21T04:34:46.132Z,10.53
2018-10-21T04:37:31.735Z,11.00
2018-10-21T04:40:16.557Z,13.37
2018-10-21T04:42:51.585Z,13.50
2018-10-21T04:45:26.322Z,12.93
2018-10-21T04:48:00.948Z,13.63
2018-10-21T04:50:35.461Z,14.77
2018-10-21T04:53:10.036Z,14.33
2018-10-21T04:55:44.630Z,14.47
2018-10-21T04:58:19.130Z,14.37
2018-10-21T05:00:53.669Z,12.83
2018-10-21T05:03:28.227Z,12.83
2018-10-21T05:06:02.812Z,13.30
2018-10-21T05:08:37.391Z,12.63
2018-10-21T05:11:11.893Z,12.70
2018-10-21T05:13:46.471Z,12.93
2018-10-21T05:16:21.079Z,14.53
2018-10-21T05:18:55.547Z,17.83
2018-10-21T05:21:30.104Z,17.33
2018-10-21T05:24:04.705Z,17.93
2018-10-21T05:26:39.705Z,19.17
2018-10-21T05:29:14.323Z,18.30
2018-10-21T05:31:55.425Z,17.67
2018-10-21T05:34:29.917Z,18.87
2018-10-21T05:37:04.432Z,20.93
2018-10-21T05:39:39.320Z,21.07
2018-10-21T05:42:37.461Z,20.23
2018-10-21T05:45:12.053Z,17.93
2018-10-21T05:47:46.598Z,17.30
2018-10-21T05:50:21.118Z,19.37
2018-10-21T05:52:56.608Z,18.37
2018-10-21T05:55:33.211Z,15.80
2018-10-21T05:58:07.980Z,13.77
2018-10-21T06:00:42.971Z,12.83
2018-10-21T06:03:19.130Z,13.20
2018-10-21T06:05:53.801Z,16.70
2018-10-21T06:08:28.474Z,17.17
2018-10-21T06:11:02.999Z,18.83
2018-10-21T06:13:43.758Z,18.23
2018-10-21T06:16:18.425Z,18.70
2018-10-21T06:18:53.102Z,17.67
2018-10-21T06:21:27.563Z,18.60
2018-10-21T06:24:02.128Z,17.40
2018-10-21T06:26:36.772Z,16.17
2018-10-21T06:29:12.178Z,15.27
2018-10-21T06:31:46.867Z,15.50
2018-10-21T06:47:53.503Z,15.13
2018-10-21T06:50:28.020Z,15.03
2018-10-21T06:53:02.626Z,15.37
2018-10-21T06:55:37.156Z,15.30
2018-10-21T06:58:11.673Z,14.87
2018-10-21T07:00:46.168Z,15.63
2018-10-21T07:03:20.763Z,16.57
2018-10-21T07:06:14.825Z,18.30
2018-10-21T07:08:50.365Z,18.83
2018-10-21T07:11:25.138Z,18.57
2018-10-21T07:13:59.943Z,17.40
2018-10-21T07:19:09.645Z,17.73
2018-10-21T07:24:29.398Z,18.30
2018-10-21T07:27:05.337Z,18.27
2018-10-21T07:29:40.062Z,16.60
2018-10-21T07:32:14.728Z,17.13
2018-10-21T07:34:49.431Z,18.47
2018-10-21T07:37:23.907Z,16.47
2018-10-21T07:39:58.437Z,18.23
2018-10-21T07:42:32.998Z,18.30
2018-10-21T07:45:07.486Z,20.27
2018-10-21T07:47:42.074Z,20.53
2018-10-21T07:50:16.635Z,18.37
2018-10-21T07:52:51.214Z,20.37
2018-10-21T07:55:29.007Z,19.47
2018-10-21T07:58:27.864Z,19.00
2018-10-21T08:03:41.551Z,19.83
2018-10-21T08:11:47.694Z,17.10
2018-10-21T08:14:22.252Z,17.17
2018-10-21T08:16:58.661Z,17.10
2018-10-21T08:22:09.907Z,14.07
2018-10-21T08:24:44.482Z,14.27
2018-10-21T08:27:24.865Z,11.93
2018-10-21T08:32:40.019Z,12.63
2018-10-21T08:35:16.058Z,11.50
2018-10-21T08:37:51.189Z,11.37
2018-10-21T08:40:25.955Z,11.33
2018-10-21T08:43:01.131Z,12.00
2018-10-21T08:45:36.620Z,7.67
2018-10-21T08:48:11.428Z,4.33
2018-10-21T08:50:48.564Z,4.67
2018-10-21T08:53:24.078Z,3.30
2018-10-21T08:56:03.571Z,3.37
2018-10-21T08:58:38.381Z,3.43
2018-10-21T09:01:14.123Z,4.03
2018-10-21T09:03:51.602Z,3.63
2018-10-21T09:06:32.208Z,4.83
2018-10-21T09:09:09.713Z,3.77
2018-10-21T09:11:44.329Z,3.50
2018-10-21T09:14:18.994Z,3.43
2018-10-21T09:16:53.806Z,3.20
2018-10-21T09:19:28.586Z,3.10
2018-10-21T09:22:03.220Z,3.10
2018-10-21T09:24:37.927Z,3.10
2018-10-21T09:27:12.598Z,3.63
2018-10-21T09:29:47.318Z,2.80
2018-10-21T09:32:22.091Z,2.83
2018-10-21T09:34:56.934Z,2.70
2018-10-21T09:37:31.790Z,2.57
2018-10-21T09:40:08.074Z,2.63
2018-10-21T09:42:45.900Z,2.77
2018-10-21T09:45:21.245Z,2.57
2018-10-21T09:47:55.986Z,2.30
2018-10-21T09:50:30.721Z,2.70
2018-10-21T09:53:06.278Z,2.30
2018-10-21T09:55:40.910Z,2.73
2018-10-21T09:58:15.439Z,2.70
2018-10-21T10:00:55.145Z,2.60
2018-10-21T10:03:29.634Z,2.80
2018-10-21T10:06:04.155Z,2.50
2018-10-21T10:08:38.598Z,2.57
2018-10-21T10:11:13.107Z,2.27
2018-10-21T10:13:47.623Z,2.60
2018-10-21T10:16:22.138Z,2.80
2018-10-21T10:18:56.624Z,3.03
2018-10-21T10:21:31.082Z,2.50
2018-10-21T10:24:05.840Z,2.43
2018-10-21T10:29:20.409Z,2.40
2018-10-21T10:31:57.294Z,2.30
2018-10-21T10:34:32.020Z,2.30
2018-10-21T10:40:23.568Z,2.00
2018-10-21T10:42:58.316Z,2.20
2018-10-21T10:45:32.739Z,2.40
2018-10-21T10:48:07.315Z,2.30
2018-10-21T10:50:45.418Z,2.43
2018-10-21T10:53:24.249Z,2.70
2018-10-21T10:55:59.298Z,2.53
2018-10-21T10:58:37.165Z,2.20
2018-10-21T11:01:11.952Z,2.50
2018-10-21T11:03:46.881Z,2.27
2018-10-21T11:06:21.979Z,2.23
2018-10-21T11:08:56.735Z,2.00
2018-10-21T11:11:31.527Z,2.23
2018-10-21T11:14:06.585Z,2.10
2018-10-21T11:16:41.770Z,2.23
2018-10-21T11:19:16.588Z,2.50
2018-10-21T11:21:51.350Z,2.10
2018-10-21T11:24:26.094Z,2.50
2018-10-21T11:27:00.937Z,3.00
2018-10-21T11:29:35.732Z,2.20
2018-10-21T11:32:10.526Z,2.30
2018-10-21T11:34:45.331Z,2.43
2018-10-21T11:37:24.819Z,2.50
2018-10-21T11:39:59.628Z,2.30
2018-10-21T11:42:34.568Z,2.10
2018-10-21T11:45:09.482Z,2.37
2018-10-21T11:47:46.684Z,2.40
2018-10-21T11:50:27.499Z,2.23
2018-10-21T11:53:03.073Z,2.33
2018-10-21T11:55:41.859Z,2.40
2018-10-21T11:58:18.769Z,2.00
2018-10-21T12:00:59.956Z,2.10
2018-10-21T12:03:34.773Z,2.00
2018-10-21T12:06:09.389Z,2.20
2018-10-21T12:08:45.468Z,1.90
2018-10-21T12:11:20.021Z,2.17
2018-10-21T12:13:54.787Z,2.30
2018-10-21T12:16:29.868Z,2.20
2018-10-21T12:19:04.640Z,2.33
2018-10-21T12:21:39.362Z,2.37
2018-10-21T12:24:13.994Z,2.10
2018-10-21T12:26:48.770Z,2.23
2018-10-21T12:29:23.450Z,2.57
2018-10-21T12:31:58.269Z,3.17
2018-10-21T12:34:32.967Z,2.30
2018-10-21T12:37:22.357Z,2.40
2018-10-21T12:39:57.058Z,2.40
2018-10-21T12:42:31.715Z,2.40
2018-10-21T12:45:08.137Z,2.37
2018-10-21T12:47:42.709Z,2.57
2018-10-21T12:50:18.481Z,2.10
2018-10-21T12:52:53.185Z,2.20
2018-10-21T12:55:28.766Z,2.30
2018-10-21T12:58:03.636Z,2.40
2018-10-21T13:00:38.149Z,2.17
2018-10-21T13:03:40.748Z,2.33
2018-10-21T13:06:15.553Z,1.80
2018-10-21T13:08:49.890Z,2.07
2018-10-21T13:11:30.047Z,1.90
2018-10-21T13:14:04.619Z,1.80
2018-10-21T13:16:39.347Z,2.20
2018-10-21T13:19:14.035Z,2.23
2018-10-21T13:21:48.580Z,2.30
2018-10-21T13:24:23.426Z,2.73
2018-10-21T13:27:06.938Z,2.80
2018-10-21T13:29:42.636Z,1.70
2018-10-21T13:32:17.435Z,2.20
2018-10-21T13:34:52.116Z,2.10
2018-10-21T13:37:26.867Z,2.30
2018-10-21T13:40:01.742Z,2.20
2018-10-21T13:42:36.459Z,2.27
2018-10-21T13:45:22.322Z,2.00
2018-10-21T13:50:59.968Z,2.07
2018-10-21T13:53:35.822Z,2.10
2018-10-21T14:02:35.748Z,2.97
2018-10-21T14:14:47.367Z,2.43
2018-10-21T14:41:47.701Z,2.27
2018-10-21T14:44:25.380Z,1.90
2018-10-21T14:47:00.274Z,2.10
2018-10-21T14:49:35.019Z,2.13
2018-10-21T14:52:14.802Z,2.67
2018-10-21T14:54:50.986Z,2.20
2018-10-21T14:57:26.547Z,2.10
2018-10-21T15:00:14.331Z,2.10
2018-10-21T15:11:44.558Z,2.33
2018-10-21T15:17:23.578Z,1.90
2018-10-21T15:22:38.330Z,2.50
2018-10-21T15:25:14.327Z,2.20
2018-10-21T15:30:36.897Z,2.30
2018-10-21T15:35:54.318Z,2.20
2018-10-21T15:38:29.581Z,2.20
2018-10-21T15:41:04.228Z,2.30
2018-10-21T15:43:39.034Z,2.17
2018-10-21T15:46:13.829Z,1.90
2018-10-21T15:48:50.889Z,1.90
2018-10-21T15:51:25.615Z,2.30
2018-10-21T15:54:01.184Z,2.10
2018-10-21T15:56:36.575Z,2.10
2018-10-21T15:59:11.294Z,2.40
2018-10-21T16:01:46.482Z,2.57
2018-10-21T16:04:21.637Z,2.23
2018-10-21T16:06:56.385Z,2.40
2018-10-21T16:09:30.831Z,2.40
2018-10-21T16:12:05.334Z,2.70
2018-10-21T16:14:39.823Z,2.27
2018-10-21T16:17:14.518Z,2.10
2018-10-21T16:19:49.373Z,2.30
2018-10-21T16:22:24.022Z,2.27
2018-10-21T16:24:58.701Z,2.53
2018-10-21T16:27:36.690Z,2.23
2018-10-21T16:30:14.128Z,2.40
2018-10-21T16:32:48.988Z,2.63
2018-10-21T16:35:26.012Z,3.30
2018-10-21T16:38:04.545Z,3.10
2018-10-21T16:40:44.476Z,3.23
2018-10-21T16:45:57.471Z,4.17
2018-10-21T16:48:32.288Z,3.40
2018-10-21T16:51:07.587Z,4.10
2018-10-21T16:53:42.525Z,4.20
2018-10-21T16:56:17.296Z,5.53
2018-10-21T16:58:52.079Z,7.10
2018-10-21T17:01:26.943Z,8.80
2018-10-21T17:04:01.843Z,8.43
2018-10-21T17:06:36.680Z,9.63
2018-10-21T17:09:13.282Z,9.80
2018-10-21T17:11:48.043Z,9.03
2018-10-21T17:14:22.721Z,8.70
2018-10-21T17:16:57.488Z,7.90
2018-10-21T17:19:32.278Z,6.33
2018-10-21T17:22:07.106Z,5.60
2018-10-21T17:24:41.830Z,4.97
2018-10-21T17:27:17.465Z,4.30
2018-10-21T17:29:52.320Z,5.60
2018-10-21T17:32:27.102Z,5.33
2018-10-21T17:35:01.904Z,6.27
2018-10-21T17:37:36.787Z,6.43
2018-10-21T17:40:12.340Z,6.03
2018-10-21T17:42:47.079Z,6.37
2018-10-21T17:45:21.853Z,6.60
2018-10-21T17:47:56.638Z,7.77
2018-10-21T17:50:31.387Z,9.80
2018-10-21T17:53:06.175Z,12.33
2018-10-21T17:55:40.953Z,11.90
2018-10-21T17:58:15.764Z,7.80
2018-10-21T18:00:50.591Z,6.60
2018-10-21T18:03:25.437Z,6.80
2018-10-21T18:06:00.424Z,5.80
2018-10-21T18:08:35.293Z,5.60
2018-10-21T18:11:10.050Z,4.87
2018-10-21T18:13:44.846Z,4.90
2018-10-21T18:16:19.518Z,4.67
2018-10-21T18:18:54.393Z,4.37
2018-10-21T18:21:29.186Z,4.23
2018-10-21T18:24:04.013Z,4.47
2018-10-21T18:26:39.794Z,4.10
2018-10-21T18:29:14.596Z,3.97
2018-10-21T18:31:49.397Z,3.73
2018-10-21T18:34:25.261Z,3.30
2018-10-21T18:37:02.794Z,3.63
2018-10-21T18:39:39.007Z,3.60
2018-10-21T18:42:13.834Z,3.57
2018-10-21T18:44:48.655Z,3.70
2018-10-21T18:47:23.508Z,3.63
2018-10-21T18:49:58.328Z,3.53
2018-10-21T18:52:33.260Z,3.70
2018-10-21T18:55:08.757Z,3.67
2018-10-21T18:57:43.758Z,3.43
2018-10-21T19:00:19.337Z,3.90
2018-10-21T19:02:54.126Z,3.80
2018-10-21T19:05:32.967Z,4.50
2018-10-21T19:08:07.727Z,4.77
2018-10-21T19:10:42.590Z,4.33
2018-10-21T19:15:51.198Z,4.60
2018-10-21T19:18:25.937Z,4.47
2018-10-21T19:21:00.723Z,4.30
2018-10-21T19:23:35.491Z,4.20
2018-10-21T19:26:10.358Z,4.23
2018-10-21T19:28:45.132Z,8.60
2018-10-21T19:31:19.854Z,4.40
2018-10-21T19:33:54.669Z,4.03
2018-10-21T19:36:29.379Z,4.17
2018-10-21T19:39:04.298Z,3.80
2018-10-21T19:41:39.006Z,4.00
2018-10-21T19:44:13.765Z,4.10
2018-10-21T19:46:48.534Z,4.03
2018-10-21T19:49:23.263Z,3.80
2018-10-21T19:51:58.108Z,4.03
2018-10-21T19:54:32.854Z,4.17
2018-10-21T19:57:07.647Z,4.20
2018-10-21T19:59:42.350Z,4.97
2018-10-21T20:02:17.202Z,5.13
2018-10-21T20:04:51.920Z,5.33
2018-10-21T20:07:26.675Z,4.70
2018-10-21T20:10:01.464Z,4.80
2018-10-21T20:12:36.389Z,4.40
2018-10-21T20:15:11.946Z,4.57
2018-10-21T20:17:46.672Z,4.63
2018-10-21T20:20:21.407Z,4.80
2018-10-21T20:22:56.095Z,4.40
2018-10-21T20:25:30.826Z,5.13
2018-10-21T20:28:05.773Z,5.07
2018-10-21T20:30:40.580Z,4.50
2018-10-21T20:33:15.344Z,5.37
2018-10-21T20:35:49.997Z,5.17
2018-10-21T20:38:24.986Z,4.77
2018-10-21T20:40:59.499Z,4.67
2018-10-21T20:43:34.222Z,5.47
2018-10-21T20:46:08.957Z,4.83
2018-10-21T20:48:43.679Z,5.23
2018-10-21T20:51:18.551Z,5.07
2018-10-21T20:53:53.298Z,5.30
2018-10-21T20:56:28.087Z,4.83
2018-10-21T20:59:02.822Z,5.03
2018-10-21T21:01:37.586Z,5.23
2018-10-21T21:04:12.402Z,5.07
2018-10-21T21:06:47.027Z,4.80
2018-10-21T21:09:21.769Z,4.73
2018-10-21T21:11:56.519Z,4.70
2018-10-21T21:14:31.246Z,5.53
2018-10-21T21:17:06.210Z,5.10
2018-10-21T21:19:40.996Z,4.87
2018-10-21T21:22:15.760Z,4.67
2018-10-21T21:24:50.914Z,4.80
2018-10-21T21:27:25.614Z,5.00
2018-10-21T21:30:00.404Z,4.83
2018-10-21T21:32:35.127Z,4.40
2018-10-21T21:35:09.842Z,4.70
2018-10-21T21:37:44.560Z,4.47
2018-10-21T21:40:19.393Z,4.27
2018-10-21T21:42:54.054Z,5.03
2018-10-21T21:45:28.828Z,5.17
2018-10-21T21:48:03.545Z,4.33
2018-10-21T21:50:38.190Z,5.00
2018-10-21T21:53:12.858Z,4.57
2018-10-21T21:55:47.718Z,5.13
2018-10-21T21:58:22.537Z,4.67
2018-10-21T22:00:57.397Z,5.60
2018-10-21T22:03:32.175Z,5.23
2018-10-21T22:06:07.251Z,5.80
2018-10-21T22:08:42.055Z,5.20
2018-10-21T22:11:16.938Z,5.47
2018-10-21T22:13:51.718Z,5.50
2018-10-21T22:16:26.731Z,5.17
2018-10-21T22:19:01.517Z,5.40
2018-10-21T22:21:37.106Z,4.83
2018-10-21T22:24:11.900Z,5.17
2018-10-21T22:26:46.623Z,5.00
2018-10-21T22:29:21.435Z,4.77
2018-10-21T22:31:56.216Z,4.83
2018-10-21T22:34:30.964Z,5.40
2018-10-21T22:37:06.096Z,5.10
2018-10-21T22:39:40.971Z,5.67
2018-10-21T22:42:15.904Z,5.80
2018-10-21T22:44:50.533Z,6.10
2018-10-21T22:47:25.266Z,5.40
2018-10-21T22:50:00.087Z,5.40
2018-10-21T22:52:34.930Z,5.13
2018-10-21T22:55:09.759Z,5.60
2018-10-21T22:57:44.791Z,5.37
2018-10-21T23:00:19.614Z,5.50
2018-10-21T23:02:54.906Z,5.90
2018-10-21T23:05:29.677Z,5.37
2018-10-21T23:08:04.394Z,5.47
2018-10-21T23:10:39.697Z,5.67
2018-10-21T23:13:14.478Z,5.73
2018-10-21T23:15:49.248Z,6.20
2018-10-21T23:18:24.032Z,5.80
2018-10-21T23:20:58.711Z,6.07
2018-10-21T23:23:33.529Z,6.33
2018-10-21T23:26:08.273Z,5.73
2018-10-21T23:28:43.084Z,5.57
2018-10-21T23:31:17.812Z,5.57
2018-10-21T23:33:52.597Z,5.60
2018-10-21T23:36:27.449Z,6.53
2018-10-21T23:39:07.053Z,6.57
2018-10-21T23:41:41.823Z,6.10
2018-10-21T23:44:16.606Z,5.90
2018-10-21T23:46:51.759Z,5.53
2018-10-21T23:49:26.558Z,5.57
2018-10-21T23:52:01.355Z,6.03
2018-10-21T23:54:36.076Z,6.30
2018-10-21T23:57:10.770Z,6.33
2018-10-21T23:59:45.878Z,6.40
